Time;durP1;ratioP1;P1;durP2;ratioP2;P2;SDS_P1;SDS_P2;PMS_P1;PMS_P2;Temp;Humidity;BMP_temperature;BMP_pressure;BME280_temperature;BME280_humidity;BME280_pressure;Samples;Min_cycle;Max_cycle;Signal;HPM_P1;HPM_P2
2023/06/24 00:01:01;;;;;;;7.50;5.13;;;14.60;99.90;16.70;97084.00;;;;5025081;28;20242;-83
2023/06/24 00:03:52;;;;;;;7.93;5.57;;;14.60;99.90;16.60;97073.00;;;;5021458;28;20218;-84
2023/06/24 00:06:42;;;;;;;6.47;5.87;;;14.60;99.90;16.30;97063.00;;;;5035103;28;20198;-85
2023/06/24 00:09:32;;;;;;;7.03;5.00;;;14.60;99.90;16.40;97082.00;;;;5025307;28;20230;-83
2023/06/24 00:12:21;;;;;;;10.43;5.63;;;14.50;99.90;16.80;97081.00;;;;5024960;28;20202;-84
2023/06/24 00:15:10;;;;;;;6.93;4.87;;;14.50;99.90;16.80;97084.00;;;;5013015;28;20321;-86
2023/06/24 00:18:05;;;;;;;4.93;4.40;;;14.50;99.90;16.70;97078.00;;;;5022622;28;20856;-85
2023/06/24 00:20:54;;;;;;;6.13;5.33;;;14.60;99.90;16.50;97067.00;;;;5019885;28;20197;-85
2023/06/24 00:23:43;;;;;;;9.13;5.27;;;14.50;99.90;16.10;97055.00;;;;5023112;28;20225;-85
2023/06/24 00:26:33;;;;;;;10.23;5.07;;;14.40;99.90;15.90;97056.00;;;;5020089;28;20217;-84
2023/06/24 00:29:22;;;;;;;6.13;5.30;;;14.30;99.90;15.20;97067.00;;;;5024717;28;20251;-83
2023/06/24 00:32:11;;;;;;;6.03;4.90;;;14.20;99.90;15.50;97052.00;;;;5030049;28;20198;-84
2023/06/24 00:35:00;;;;;;;4.47;4.07;;;14.10;99.90;16.10;97057.00;;;;5029321;28;20279;-84
2023/06/24 00:37:49;;;;;;;4.47;4.07;;;14.10;99.90;15.40;97065.00;;;;5026602;28;20255;-82
2023/06/24 00:40:39;;;;;;;10.50;5.60;;;14.10;99.90;16.10;97060.00;;;;5019837;28;20227;-85
2023/06/24 00:43:31;;;;;;;4.97;3.90;;;14.10;99.90;16.20;97057.00;;;;5025670;28;20206;-84
2023/06/24 00:46:20;;;;;;;7.93;4.40;;;14.10;99.90;15.90;97067.00;;;;5018865;28;20217;-83
2023/06/24 00:49:09;;;;;;;6.03;4.60;;;14.10;99.90;16.10;97069.00;;;;5013192;28;20222;-85
2023/06/24 00:52:00;;;;;;;5.60;4.03;;;14.10;99.90;16.60;97075.00;;;;5026793;28;20817;-84
2023/06/24 00:54:49;;;;;;;3.57;3.27;;;14.20;99.90;16.10;97075.00;;;;5015290;28;20272;-86
2023/06/24 00:57:38;;;;;;;6.27;4.37;;;14.20;99.90;15.20;97077.00;;;;5017597;28;20298;-84
2023/06/24 01:00:29;;;;;;;6.27;4.67;;;14.10;99.90;15.40;97096.00;;;;5025799;28;20672;-84
2023/06/24 01:03:18;;;;;;;5.40;3.47;;;14.00;99.90;16.10;97099.00;;;;5016995;28;20326;-85
2023/06/24 01:06:07;;;;;;;4.10;3.70;;;14.00;99.90;16.00;97108.00;;;;5023342;28;20221;-85
2023/06/24 01:08:56;;;;;;;4.00;3.60;;;14.00;99.90;16.00;97110.00;;;;5014359;28;20669;-84
2023/06/24 01:11:45;;;;;;;4.57;4.00;;;14.40;99.90;15.60;97116.00;;;;5015927;28;20255;-84
2023/06/24 01:14:35;;;;;;;5.73;3.47;;;14.00;99.90;15.30;97114.00;;;;5023958;28;20275;-85
2023/06/24 01:17:32;;;;;;;4.23;3.80;;;13.80;99.90;15.20;97123.00;;;;5015514;28;20217;-84
2023/06/24 01:20:28;;;;;;;9.40;3.47;;;13.70;99.90;15.50;97114.00;;;;5016011;28;20313;-84
2023/06/24 01:24:15;;;;;;;3.63;3.00;;;13.70;99.90;15.90;97110.00;;;;5019533;28;20219;-85
2023/06/24 01:27:44;;;;;;;3.40;3.10;;;13.70;99.90;15.50;97109.00;;;;5016996;28;20707;-84
2023/06/24 01:31:33;;;;;;;3.07;2.73;;;13.70;99.90;15.90;97113.00;;;;5018800;28;20229;-84
2023/06/24 01:34:30;;;;;;;4.17;2.40;;;13.70;99.90;16.00;97121.00;;;;4941532;28;20326;-84
2023/06/24 01:37:28;;;;;;;3.40;3.10;;;13.80;99.90;15.60;97120.00;;;;5023352;28;20224;-86
2023/06/24 01:40:24;;;;;;;2.77;2.57;;;13.80;99.90;16.00;97130.00;;;;5024704;28;20229;-85
2023/06/24 01:43:16;;;;;;;5.03;3.10;;;13.80;99.90;15.40;97128.00;;;;5022838;28;20211;-84
2023/06/24 01:46:06;;;;;;;4.57;3.10;;;13.70;99.90;16.00;97123.00;;;;5023320;28;20204;-85
2023/06/24 01:49:02;;;;;;;5.07;2.80;;;13.80;99.90;15.30;97121.00;;;;5038048;28;20274;-84
2023/06/24 01:51:52;;;;;;;4.30;3.23;;;13.70;99.90;15.00;97141.00;;;;5023264;28;20218;-85
2023/06/24 01:54:42;;;;;;;5.20;3.33;;;13.60;99.90;15.20;97144.00;;;;5027240;28;20332;-85
2023/06/24 01:57:34;;;;;;;3.70;2.63;;;13.60;99.90;15.50;97147.00;;;;5026181;28;20194;-84
2023/06/24 02:00:24;;;;;;;2.60;2.03;;;13.50;99.90;15.50;97144.00;;;;5024730;28;20604;-84
2023/06/24 02:03:14;;;;;;;6.50;3.10;;;13.50;99.90;15.30;97152.00;;;;5032553;28;20242;-84
2023/06/24 02:06:09;;;;;;;4.10;2.77;;;13.40;99.90;14.90;97157.00;;;;5028622;28;20208;-85
2023/06/24 02:08:59;;;;;;;4.50;2.77;;;13.40;99.90;14.80;97160.00;;;;5023542;28;20229;-84
2023/06/24 02:11:49;;;;;;;2.80;2.47;;;13.20;99.90;14.70;97158.00;;;;5027365;28;20586;-84
2023/06/24 02:14:39;;;;;;;6.97;2.63;;;13.20;99.90;15.00;97161.00;;;;5027181;28;20680;-83
2023/06/24 02:17:29;;;;;;;3.73;2.33;;;13.10;99.90;14.90;97145.00;;;;5027435;28;20202;-84
2023/06/24 02:20:21;;;;;;;2.27;2.07;;;13.10;99.90;15.00;97161.00;;;;5025009;28;20203;-84
2023/06/24 02:23:13;;;;;;;2.90;2.23;;;13.20;99.90;15.10;97149.00;;;;5022591;28;20288;-84
2023/06/24 02:26:05;;;;;;;2.53;2.23;;;13.10;99.90;15.30;97152.00;;;;5029968;28;20201;-83
2023/06/24 02:28:55;;;;;;;2.53;2.33;;;13.20;99.90;15.30;97157.00;;;;5027270;28;20201;-84
2023/06/24 02:31:44;;;;;;;4.10;2.37;;;13.20;99.90;15.10;97148.00;;;;5021580;28;20222;-84
2023/06/24 02:34:33;;;;;;;2.13;1.83;;;13.20;99.90;15.50;97152.00;;;;5032587;28;20399;-84
2023/06/24 02:37:22;;;;;;;3.07;2.43;;;13.20;99.90;15.40;97159.00;;;;5026126;28;20208;-84
2023/06/24 02:40:14;;;;;;;3.93;2.47;;;13.30;99.90;15.20;97150.00;;;;5036494;28;20194;-83
2023/06/24 02:43:02;;;;;;;2.97;2.30;;;13.30;99.90;15.20;97155.00;;;;5033042;28;20197;-84
2023/06/24 02:45:52;;;;;;;2.67;1.93;;;13.20;99.90;15.40;97168.00;;;;5020227;28;20217;-84
2023/06/24 02:48:42;;;;;;;3.13;2.47;;;13.20;99.90;15.50;97157.00;;;;5022487;28;20202;-83
2023/06/24 02:51:32;;;;;;;2.33;2.00;;;13.20;99.90;15.20;97152.00;;;;5030039;28;20286;-83
2023/06/24 02:54:21;;;;;;;3.20;2.10;;;13.30;99.90;15.60;97159.00;;;;5020768;28;20300;-83
2023/06/24 02:57:15;;;;;;;2.13;1.80;;;13.30;99.90;15.60;97155.00;;;;5024843;28;20208;-83
2023/06/24 03:00:08;;;;;;;2.20;1.87;;;13.40;99.90;15.20;97147.00;;;;5020819;28;20211;-84
2023/06/24 03:02:57;;;;;;;3.40;2.30;;;13.30;99.90;15.40;97155.00;;;;5024867;28;20622;-84
2023/06/24 03:05:48;;;;;;;5.97;1.80;;;13.40;99.90;14.70;97151.00;;;;5026407;28;20197;-84
2023/06/24 03:08:37;;;;;;;3.70;1.80;;;13.30;99.90;14.30;97158.00;;;;5027649;28;20213;-84
2023/06/24 03:11:28;;;;;;;1.97;1.77;;;13.10;99.90;14.90;97173.00;;;;5023630;28;20230;-83
2023/06/24 03:14:18;;;;;;;2.17;1.97;;;13.10;99.90;15.20;97163.00;;;;5016940;28;20225;-85
2023/06/24 03:17:08;;;;;;;1.83;1.40;;;13.10;99.90;15.30;97167.00;;;;5031551;28;20205;-84
2023/06/24 03:19:57;;;;;;;3.33;1.70;;;13.10;99.90;15.60;97171.00;;;;5025373;28;20319;-84
2023/06/24 03:22:45;;;;;;;1.77;1.37;;;13.20;99.90;15.30;97163.00;;;;5027900;28;20228;-83
2023/06/24 03:25:35;;;;;;;4.37;1.83;;;13.20;99.90;15.10;97168.00;;;;5028539;28;20224;-86
2023/06/24 03:28:24;;;;;;;3.67;1.93;;;13.20;99.90;15.10;97169.00;;;;5026980;28;20201;-84
2023/06/24 03:31:15;;;;;;;1.93;1.47;;;13.30;99.90;15.00;97167.00;;;;5026845;28;20233;-85
2023/06/24 03:34:04;;;;;;;4.37;1.60;;;13.20;99.90;14.90;97170.00;;;;5031382;28;20858;-84
2023/06/24 03:36:54;;;;;;;2.20;1.63;;;13.20;99.90;14.70;97161.00;;;;5027457;28;20564;-83
2023/06/24 03:39:43;;;;;;;2.60;1.43;;;13.20;99.90;15.00;97161.00;;;;5034391;28;20608;-84
2023/06/24 03:42:31;;;;;;;1.50;1.40;;;13.20;99.90;15.20;97162.00;;;;5022050;28;21877;-84
2023/06/24 03:45:20;;;;;;;1.47;1.33;;;13.20;99.90;15.50;97168.00;;;;5036014;28;20262;-86
2023/06/24 03:48:11;;;;;;;1.73;1.63;;;13.40;99.90;15.50;97166.00;;;;5033235;28;20202;-84
2023/06/24 03:51:00;;;;;;;1.40;1.30;;;13.50;99.90;15.50;97164.00;;;;5024270;28;20225;-84
2023/06/24 03:53:49;;;;;;;3.70;1.70;;;13.50;99.90;15.90;97170.00;;;;5022688;28;20610;-84
2023/06/24 03:56:38;;;;;;;1.50;1.40;;;13.60;99.90;15.60;97162.00;;;;5029349;28;20197;-85
2023/06/24 03:59:27;;;;;;;1.53;1.20;;;13.70;99.90;15.70;97170.00;;;;5017938;28;20237;-84
2023/06/24 04:02:17;;;;;;;1.80;1.50;;;13.80;99.90;15.50;97187.00;;;;5026074;28;20209;-85
2023/06/24 04:05:08;;;;;;;1.53;1.00;;;13.80;99.90;15.40;97189.00;;;;5029627;28;20710;-84
2023/06/24 04:07:57;;;;;;;2.43;1.70;;;13.80;99.90;16.00;97184.00;;;;5013630;28;20210;-83
2023/06/24 04:10:46;;;;;;;1.17;1.07;;;13.40;99.90;15.90;97179.00;;;;5015730;28;20238;-84
2023/06/24 04:13:35;;;;;;;1.67;1.30;;;13.90;99.90;15.70;97176.00;;;;5017787;28;20691;-82
2023/06/24 04:16:24;;;;;;;1.93;1.60;;;13.90;99.90;15.60;97181.00;;;;5034583;28;20599;-83
2023/06/24 04:19:12;;;;;;;1.43;1.33;;;13.90;99.90;16.20;97190.00;;;;5026037;28;20297;-83
2023/06/24 04:22:03;;;;;;;1.33;1.23;;;13.90;99.90;16.50;97186.00;;;;5021315;28;20205;-83
2023/06/24 04:24:52;;;;;;;1.37;1.13;;;14.00;99.90;16.80;97193.00;;;;5024312;28;21120;-83
2023/06/24 04:27:41;;;;;;;0.90;0.90;;;14.20;99.90;16.70;97185.00;;;;5031080;28;20202;-83
2023/06/24 04:30:30;;;;;;;1.30;1.20;;;14.30;99.90;16.10;97190.00;;;;5025326;28;20213;-85
2023/06/24 04:33:18;;;;;;;1.03;0.93;;;14.20;99.90;16.10;97192.00;;;;5031703;28;20220;-85
2023/06/24 04:36:07;;;;;;;2.23;1.20;;;14.20;99.90;16.30;97205.00;;;;5023896;28;20205;-83
2023/06/24 04:38:58;;;;;;;1.47;1.10;;;14.20;99.90;16.30;97204.00;;;;5017756;28;20680;-83
2023/06/24 04:41:47;;;;;;;1.17;0.93;;;14.30;99.90;16.70;97211.00;;;;5020666;28;20201;-83
2023/06/24 04:44:36;;;;;;;1.97;1.40;;;14.30;99.90;16.50;97206.00;;;;5022898;28;20225;-83
2023/06/24 04:47:24;;;;;;;4.67;1.53;;;14.40;99.90;16.70;97214.00;;;;5021769;28;20201;-83
2023/06/24 04:50:13;;;;;;;1.63;1.43;;;14.40;99.90;17.00;97199.00;;;;5021261;28;20264;-84
2023/06/24 04:53:02;;;;;;;2.93;1.83;;;14.50;99.90;17.00;97210.00;;;;5026133;28;20225;-84
2023/06/24 04:55:52;;;;;;;1.07;1.07;;;14.60;99.90;16.70;97206.00;;;;5021988;28;20262;-85
2023/06/24 04:58:41;;;;;;;3.27;1.03;;;14.60;99.90;17.00;97203.00;;;;5024066;28;20592;-84
2023/06/24 05:01:30;;;;;;;1.63;1.03;;;14.60;99.90;17.30;97214.00;;;;5015985;28;20202;-84
2023/06/24 05:04:20;;;;;;;1.30;1.20;;;14.70;99.90;17.70;97215.00;;;;5019035;28;20221;-83
2023/06/24 05:07:08;;;;;;;1.00;0.90;;;14.80;99.90;16.80;97207.00;;;;5019532;28;20197;-83
2023/06/24 05:09:57;;;;;;;0.93;0.80;;;14.80;99.90;16.80;97221.00;;;;5012192;28;20217;-83
2023/06/24 05:12:48;;;;;;;1.20;1.07;;;14.80;99.90;17.20;97213.00;;;;5016216;28;20225;-83
2023/06/24 05:15:36;;;;;;;1.10;0.90;;;14.90;99.90;17.00;97213.00;;;;5021887;28;20221;-84
2023/06/24 05:18:25;;;;;;;2.40;1.10;;;14.90;99.90;17.40;97200.00;;;;5011640;28;20208;-84
2023/06/24 05:21:14;;;;;;;1.20;1.10;;;15.00;99.90;17.30;97219.00;;;;5033370;28;20231;-84
2023/06/24 05:24:03;;;;;;;1.03;0.90;;;15.00;99.90;17.20;97224.00;;;;5012911;28;20237;-84
2023/06/24 05:26:53;;;;;;;0.83;0.83;;;15.10;99.90;17.20;97225.00;;;;5022230;28;20210;-84
2023/06/24 05:29:43;;;;;;;0.80;0.80;;;15.10;99.90;17.40;97229.00;;;;5029667;28;20200;-83
2023/06/24 05:32:32;;;;;;;0.90;0.80;;;15.20;99.90;17.50;97230.00;;;;5026785;28;20442;-83
2023/06/24 05:35:21;;;;;;;1.47;1.37;;;15.30;99.90;17.20;97255.00;;;;5022133;28;20772;-84
2023/06/24 05:38:10;;;;;;;1.43;1.00;;;15.30;99.90;17.30;97242.00;;;;5017236;28;20201;-82
2023/06/24 05:40:59;;;;;;;0.80;0.70;;;15.40;99.90;17.40;97258.00;;;;5017501;28;20201;-83
2023/06/24 05:43:48;;;;;;;1.13;1.03;;;15.40;99.90;17.50;97259.00;;;;5023946;28;20665;-83
2023/06/24 05:46:38;;;;;;;4.10;1.00;;;15.40;99.90;17.70;97255.00;;;;5025656;28;20202;-84
2023/06/24 05:49:27;;;;;;;2.27;1.00;;;15.50;99.90;18.00;97262.00;;;;5022915;28;20206;-83
2023/06/24 05:52:16;;;;;;;1.90;1.80;;;15.50;99.90;17.80;97266.00;;;;5023426;28;20229;-84
2023/06/24 05:55:06;;;;;;;1.30;0.90;;;15.60;99.90;17.60;97271.00;;;;5024674;28;20218;-84
2023/06/24 05:57:54;;;;;;;2.07;1.07;;;15.60;99.90;17.90;97278.00;;;;5023896;28;20744;-84
2023/06/24 06:00:43;;;;;;;2.53;0.60;;;15.70;99.90;18.10;97277.00;;;;5017236;28;20210;-84
2023/06/24 06:03:34;;;;;;;2.40;0.93;;;15.70;99.90;18.10;97282.00;;;;5018128;28;20205;-83
2023/06/24 06:06:23;;;;;;;1.40;1.30;;;15.80;99.90;18.80;97290.00;;;;5017251;28;20213;-85
2023/06/24 06:09:11;;;;;;;0.60;0.60;;;16.00;99.90;18.70;97289.00;;;;5014187;28;20205;-84
2023/06/24 06:12:00;;;;;;;7.60;4.87;;;16.10;99.90;18.50;97272.00;;;;5026761;28;20240;-84
2023/06/24 06:14:49;;;;;;;5.80;3.40;;;16.30;99.90;18.90;97277.00;;;;5016883;28;20221;-85
2023/06/24 06:17:38;;;;;;;6.57;3.47;;;16.40;99.90;19.10;97278.00;;;;5029023;28;21853;-85
2023/06/24 06:20:28;;;;;;;1.67;1.30;;;16.60;99.90;19.40;97285.00;;;;5015512;28;20897;-85
2023/06/24 06:23:18;;;;;;;1.97;1.20;;;16.70;99.90;20.10;97281.00;;;;5012949;28;20201;-84
2023/06/24 06:26:07;;;;;;;3.33;1.73;;;17.00;99.90;20.40;97296.00;;;;5018376;28;20565;-85
2023/06/24 06:28:56;;;;;;;2.50;2.17;;;17.30;99.90;20.60;97299.00;;;;5022337;28;20737;-85
2023/06/24 06:31:44;;;;;;;3.87;1.80;;;17.40;99.90;20.90;97311.00;;;;5027984;28;20204;-85
2023/06/24 06:34:33;;;;;;;3.67;2.00;;;17.70;99.90;20.70;97300.00;;;;5024518;28;20255;-85
2023/06/24 06:37:23;;;;;;;2.23;1.50;;;17.80;99.90;20.40;97308.00;;;;5021777;28;20209;-85
2023/06/24 06:40:13;;;;;;;3.27;1.30;;;17.80;99.90;20.40;97309.00;;;;5030148;28;20194;-86
2023/06/24 06:43:02;;;;;;;2.03;1.10;;;17.80;99.90;20.70;97311.00;;;;5023916;28;20592;-85
2023/06/24 06:45:51;;;;;;;1.00;0.90;;;17.90;99.90;20.90;97311.00;;;;5028211;28;20197;-86
2023/06/24 06:48:39;;;;;;;4.13;1.17;;;18.00;99.90;20.80;97309.00;;;;5018416;28;20703;-85
2023/06/24 06:51:28;;;;;;;1.70;0.93;;;18.00;99.90;20.90;97316.00;;;;5028933;28;20742;-86
2023/06/24 06:54:19;;;;;;;1.73;0.90;;;18.10;99.90;20.70;97318.00;;;;5026292;28;20217;-85
2023/06/24 06:57:08;;;;;;;1.10;0.70;;;18.10;99.90;20.50;97311.00;;;;5018639;28;20672;-84
2023/06/24 06:59:57;;;;;;;2.87;0.57;;;18.10;99.90;20.70;97309.00;;;;5027266;28;20609;-86
2023/06/24 07:02:46;;;;;;;0.53;0.37;;;18.10;99.90;20.90;97311.00;;;;5024653;28;20206;-84
2023/06/24 07:05:35;;;;;;;0.40;0.20;;;18.10;99.90;20.90;97314.00;;;;5023731;28;20744;-85
2023/06/24 07:08:26;;;;;;;0.20;0.20;;;18.10;99.90;20.50;97297.00;;;;5021244;28;20415;-83
2023/06/24 07:11:16;;;;;;;0.30;0.30;;;18.10;99.90;21.00;97310.00;;;;5022978;28;20308;-84
2023/06/24 07:14:05;;;;;;;0.97;0.67;;;18.20;99.90;20.80;97306.00;;;;5015681;28;20715;-84
2023/06/24 07:16:54;;;;;;;0.30;0.30;;;18.20;99.90;20.70;97302.00;;;;5022511;28;20212;-84
2023/06/24 07:19:42;;;;;;;0.20;0.17;;;18.20;99.90;20.50;97304.00;;;;5026817;28;20233;-83
2023/06/24 07:22:31;;;;;;;0.43;0.30;;;18.20;99.90;20.80;97295.00;;;;5023052;28;20192;-85
2023/06/24 07:25:20;;;;;;;0.63;0.40;;;18.20;99.90;20.90;97303.00;;;;5026474;28;20217;-84
2023/06/24 07:28:10;;;;;;;0.20;0.17;;;18.20;99.90;21.00;97306.00;;;;5025514;28;20303;-84
2023/06/24 07:30:59;;;;;;;0.30;0.20;;;18.30;99.90;21.50;97315.00;;;;5025461;28;20544;-83
2023/06/24 07:33:48;;;;;;;0.27;0.27;;;18.40;99.90;21.80;97301.00;;;;5026881;28;20325;-85
2023/06/24 07:36:37;;;;;;;0.97;0.20;;;18.60;99.90;21.90;97298.00;;;;5018522;28;20262;-84
2023/06/24 07:39:27;;;;;;;0.80;0.30;;;18.80;99.90;21.50;97311.00;;;;5025663;28;20205;-85
2023/06/24 07:42:18;;;;;;;0.53;0.27;;;18.80;99.90;21.90;97311.00;;;;5019604;28;20258;-84
2023/06/24 07:45:10;;;;;;;3.30;0.50;;;18.90;99.90;22.10;97311.00;;;;5037465;28;20227;-85
2023/06/24 07:47:58;;;;;;;0.30;0.30;;;19.00;99.90;22.00;97306.00;;;;5019309;28;20206;-84
2023/06/24 07:50:49;;;;;;;1.80;0.40;;;19.10;99.90;21.90;97317.00;;;;5023512;28;20214;-83
2023/06/24 07:53:37;;;;;;;0.30;0.20;;;19.20;99.90;22.20;97318.00;;;;5026211;28;20707;-84
2023/06/24 07:56:26;;;;;;;2.53;0.60;;;19.20;99.90;22.20;97318.00;;;;5028768;28;20267;-85
2023/06/24 07:59:15;;;;;;;0.80;0.20;;;19.30;99.90;22.10;97323.00;;;;5028191;28;20209;-84
2023/06/24 08:02:07;;;;;;;0.73;0.30;;;19.30;99.90;21.90;97325.00;;;;5027345;28;20205;-84
2023/06/24 08:04:56;;;;;;;0.73;0.30;;;19.30;99.90;21.70;97332.00;;;;5029175;28;20708;-84
2023/06/24 08:07:45;;;;;;;1.10;0.40;;;19.20;99.90;22.30;97329.00;;;;5026629;28;20814;-84
2023/06/24 08:10:34;;;;;;;0.87;0.37;;;19.30;99.90;22.50;97329.00;;;;5024669;28;20213;-83
2023/06/24 08:13:23;;;;;;;1.97;0.70;;;19.40;99.90;22.70;97327.00;;;;5026329;28;20279;-84
2023/06/24 08:16:12;;;;;;;2.23;0.40;;;19.60;99.90;22.70;97329.00;;;;5024761;28;20235;-84
2023/06/24 08:19:02;;;;;;;0.60;0.57;;;19.70;99.90;22.70;97332.00;;;;5023111;28;20259;-84
2023/06/24 08:21:51;;;;;;;1.17;0.40;;;19.80;99.90;22.70;97340.00;;;;5026679;28;20209;-84
2023/06/24 08:24:41;;;;;;;2.13;0.63;;;19.80;99.90;22.60;97338.00;;;;5027752;28;20603;-84
2023/06/24 08:27:30;;;;;;;0.40;0.40;;;19.80;99.90;22.60;97338.00;;;;5018214;28;20703;-84
2023/06/24 08:30:19;;;;;;;0.70;0.50;;;19.80;99.90;22.70;97349.00;;;;5031033;28;20209;-84
2023/06/24 08:33:08;;;;;;;0.63;0.40;;;19.80;99.90;22.60;97350.00;;;;5019178;28;20225;-84
2023/06/24 08:35:58;;;;;;;0.23;0.20;;;19.90;99.90;22.40;97350.00;;;;5019672;28;20205;-84
2023/06/24 08:38:48;;;;;;;0.97;0.43;;;19.80;99.90;22.50;97351.00;;;;5024680;28;20267;-84
2023/06/24 08:41:36;;;;;;;0.40;0.40;;;19.80;99.90;22.70;97347.00;;;;5026054;28;20227;-84
2023/06/24 08:44:25;;;;;;;0.40;0.20;;;19.80;99.90;22.90;97346.00;;;;5021795;28;20228;-84
2023/06/24 08:47:16;;;;;;;0.90;0.43;;;19.90;99.90;23.10;97340.00;;;;5025233;28;20589;-84
2023/06/24 08:50:10;;;;;;;0.67;0.20;;;20.00;99.90;23.10;97350.00;;;;5025721;28;20198;-84
2023/06/24 08:53:04;;;;;;;0.57;0.30;;;20.00;99.90;23.10;97341.00;;;;5025464;28;20212;-84
2023/06/24 08:55:55;;;;;;;1.13;0.30;;;20.10;99.90;23.20;97343.00;;;;5025312;28;20205;-84
2023/06/24 08:58:45;;;;;;;0.20;0.20;;;20.20;99.90;23.30;97337.00;;;;5026236;28;20221;-84
2023/06/24 09:01:34;;;;;;;0.93;0.50;;;20.30;99.90;23.90;97342.00;;;;5025651;28;20273;-84
2023/06/24 09:04:23;;;;;;;0.67;0.40;;;20.50;99.90;24.30;97337.00;;;;5028870;28;21438;-85
2023/06/24 09:07:11;;;;;;;0.50;0.50;;;20.70;99.90;24.60;97344.00;;;;5029260;28;20197;-83
2023/06/24 09:10:03;;;;;;;1.40;0.40;;;20.80;99.90;24.50;97340.00;;;;5025504;28;20230;-84
2023/06/24 09:12:56;;;;;;;0.80;0.40;;;21.20;99.90;24.70;97338.00;;;;5028146;28;20212;-83
2023/06/24 09:15:44;;;;;;;0.27;0.13;;;21.40;99.90;25.10;97337.00;;;;5028369;28;20205;-84
2023/06/24 09:18:33;;;;;;;0.30;0.23;;;21.60;99.90;25.10;97341.00;;;;5028859;28;20259;-84
2023/06/24 09:21:26;;;;;;;0.30;0.10;;;21.80;99.90;25.10;97337.00;;;;5023774;28;20209;-84
2023/06/24 09:24:15;;;;;;;0.20;0.20;;;22.00;99.90;24.30;97331.00;;;;5019374;28;20228;-85
2023/06/24 09:27:06;;;;;;;0.30;0.20;;;22.00;99.90;25.90;97315.00;;;;5023423;28;20270;-85
2023/06/24 09:29:55;;;;;;;1.20;0.20;;;22.30;99.90;26.70;97315.00;;;;5027414;28;20707;-86
2023/06/24 09:32:44;;;;;;;0.23;0.20;;;22.90;99.90;27.80;97330.00;;;;5012346;28;20206;-86
2023/06/24 09:35:37;;;;;;;0.30;0.20;;;23.40;99.90;27.00;97347.00;;;;5024358;28;20229;-85
2023/06/24 09:38:34;;;;;;;0.33;0.10;;;23.70;99.90;26.30;97330.00;;;;5021815;28;20667;-84
2023/06/24 09:41:23;;;;;;;0.40;0.20;;;23.70;99.40;27.10;97348.00;;;;5019397;28;20264;-84
2023/06/24 09:44:13;;;;;;;0.27;0.17;;;23.80;99.90;26.70;97352.00;;;;5022779;28;20233;-84
2023/06/24 09:47:02;;;;;;;0.33;0.20;;;23.80;99.90;27.00;97330.00;;;;5028291;28;20209;-84
2023/06/24 09:49:52;;;;;;;2.33;0.30;;;23.90;99.10;27.30;97329.00;;;;5012619;28;20213;-84
2023/06/24 09:52:41;;;;;;;0.30;0.20;;;24.20;99.80;26.60;97352.00;;;;5017507;28;20202;-84
2023/06/24 09:55:30;;;;;;;0.30;0.20;;;24.10;98.10;26.40;97354.00;;;;5022838;28;20236;-86
2023/06/24 09:58:20;;;;;;;0.30;0.20;;;24.10;96.60;26.00;97354.00;;;;5023524;28;20208;-86
2023/06/24 10:01:10;;;;;;;0.20;0.10;;;24.00;96.60;25.60;97353.00;;;;5024320;28;20349;-84
2023/06/24 10:03:59;;;;;;;0.20;0.10;;;23.70;95.90;25.60;97365.00;;;;5015847;28;20226;-84
2023/06/24 10:06:49;;;;;;;0.40;0.20;;;23.50;95.40;26.20;97365.00;;;;5021493;28;20194;-86
2023/06/24 10:09:41;;;;;;;0.70;0.10;;;23.40;97.00;25.40;97362.00;;;;5026596;28;20202;-84
2023/06/24 10:12:31;;;;;;;0.20;0.00;;;23.10;96.40;25.70;97358.00;;;;5027457;28;20213;-84
2023/06/24 10:15:20;;;;;;;0.20;0.10;;;23.00;96.60;26.00;97373.00;;;;5018869;28;20277;-84
2023/06/24 10:18:35;;;;;;;0.20;0.10;;;23.00;97.40;25.10;97374.00;;;;5022076;28;20220;-85
2023/06/24 10:21:46;;;;;;;0.30;0.10;;;23.00;96.60;24.10;97367.00;;;;5020224;28;20212;-83
2023/06/24 10:24:39;;;;;;;0.30;0.20;;;22.60;95.80;24.80;97376.00;;;;5031280;28;20312;-84
2023/06/24 10:27:32;;;;;;;0.20;0.03;;;22.40;95.90;25.20;97381.00;;;;5028774;28;20205;-84
2023/06/24 10:30:23;;;;;;;0.20;0.10;;;22.40;96.20;25.10;97382.00;;;;5020519;28;20217;-84
2023/06/24 10:33:12;;;;;;;0.20;0.20;;;22.40;96.20;25.30;97384.00;;;;5024888;28;20291;-83
2023/06/24 10:36:03;;;;;;;0.20;0.10;;;22.40;96.50;25.30;97375.00;;;;5027280;28;20737;-83
2023/06/24 10:38:57;;;;;;;0.20;0.10;;;22.40;97.30;26.00;97373.00;;;;5034929;28;20281;-83
2023/06/24 10:41:46;;;;;;;0.20;0.10;;;22.60;98.30;26.00;97367.00;;;;5032491;28;20206;-84
2023/06/24 10:44:47;;;;;;;0.20;0.00;;;22.80;97.30;25.70;97371.00;;;;5027823;28;20228;-83
2023/06/24 10:47:38;;;;;;;0.20;0.10;;;22.70;97.00;26.20;97378.00;;;;5032295;28;20216;-84
2023/06/24 10:50:27;;;;;;;0.20;0.10;;;22.90;97.50;26.30;97371.00;;;;5025209;28;20202;-83
2023/06/24 10:53:19;;;;;;;0.77;0.20;;;23.00;96.60;26.00;97378.00;;;;5032956;28;20687;-84
2023/06/24 10:56:08;;;;;;;0.20;0.00;;;23.10;97.40;25.90;97379.00;;;;5030539;28;20226;-85
2023/06/24 10:58:57;;;;;;;0.20;0.10;;;23.10;96.80;26.60;97372.00;;;;5032523;28;20296;-85
2023/06/24 11:01:53;;;;;;;0.53;0.17;;;23.20;97.40;26.00;97362.00;;;;5029647;28;20216;-85
2023/06/24 11:04:47;;;;;;;0.20;0.10;;;23.30;96.80;25.60;97357.00;;;;5028486;28;20227;-85
2023/06/24 11:07:38;;;;;;;0.43;0.23;;;23.10;94.90;25.20;97362.00;;;;5031850;28;20220;-84
2023/06/24 11:10:28;;;;;;;0.30;0.30;;;23.00;96.10;26.00;97369.00;;;;5027016;28;20205;-85
2023/06/24 11:13:21;;;;;;;0.30;0.20;;;23.00;96.40;26.10;97362.00;;;;5028809;28;20284;-84
2023/06/24 11:16:10;;;;;;;1.07;0.17;;;23.00;96.20;26.20;97354.00;;;;5024688;28;20253;-85
2023/06/24 11:19:02;;;;;;;0.47;0.20;;;23.10;96.00;25.30;97349.00;;;;5024646;28;20684;-85
2023/06/24 11:21:51;;;;;;;0.47;0.20;;;23.10;94.80;25.40;97344.00;;;;5027237;28;20746;-84
2023/06/24 11:24:41;;;;;;;0.40;0.20;;;23.00;94.70;26.10;97322.00;;;;5030651;28;20219;-84
2023/06/24 11:27:32;;;;;;;0.30;0.20;;;23.20;95.40;27.10;97340.00;;;;5032114;28;20213;-83
2023/06/24 11:30:22;;;;;;;0.40;0.27;;;23.50;95.70;27.00;97334.00;;;;5035547;28;20667;-83
2023/06/24 11:33:11;;;;;;;0.40;0.20;;;23.70;95.10;27.10;97347.00;;;;5033370;28;20348;-86
2023/06/24 11:35:59;;;;;;;0.40;0.20;;;23.80;95.30;27.20;97340.00;;;;5030463;28;20230;-85
2023/06/24 11:38:48;;;;;;;0.30;0.23;;;24.00;93.90;25.10;97350.00;;;;5031700;28;20246;-83
2023/06/24 11:41:38;;;;;;;0.20;0.10;;;23.80;92.00;25.90;97346.00;;;;5032108;28;20209;-85
2023/06/24 11:44:29;;;;;;;0.33;0.13;;;23.60;92.80;25.50;97354.00;;;;5030624;28;20218;-86
2023/06/24 11:47:18;;;;;;;0.30;0.20;;;23.50;92.60;25.80;97348.00;;;;5030478;28;20247;-85
2023/06/24 11:50:08;;;;;;;0.20;0.20;;;23.40;94.00;26.60;97346.00;;;;5030533;28;20210;-85
2023/06/24 11:52:58;;;;;;;0.30;0.20;;;23.50;94.30;27.70;97350.00;;;;5030712;28;20202;-85
2023/06/24 11:55:53;;;;;;;0.40;0.30;;;23.70;94.80;27.00;97343.00;;;;5030142;28;20223;-83
2023/06/24 11:58:44;;;;;;;0.20;0.20;;;23.90;93.50;25.20;97351.00;;;;5028500;28;20205;-85
2023/06/24 12:01:37;;;;;;;0.20;0.10;;;23.70;91.70;25.80;97343.00;;;;5029784;28;20215;-83
2023/06/24 12:04:29;;;;;;;0.60;0.20;;;23.40;93.00;26.00;97358.00;;;;5027387;28;20287;-83
2023/06/24 12:07:18;;;;;;;0.20;0.10;;;23.40;93.60;26.20;97343.00;;;;5028691;28;20201;-85
2023/06/24 12:10:10;;;;;;;0.20;0.10;;;23.40;93.20;25.90;97329.00;;;;5030611;28;20202;-84
2023/06/24 12:12:59;;;;;;;0.20;0.10;;;23.30;92.90;26.40;97338.00;;;;5037298;28;20323;-83
2023/06/24 12:15:48;;;;;;;0.20;0.20;;;23.40;93.30;24.40;97353.00;;;;5028303;28;20217;-82
2023/06/24 12:18:38;;;;;;;0.30;0.20;;;23.10;91.60;25.10;97359.00;;;;5033526;28;20573;-84
2023/06/24 12:21:27;;;;;;;0.30;0.20;;;22.90;92.10;25.50;97365.00;;;;5023156;28;20198;-84
2023/06/24 12:24:15;;;;;;;0.20;0.10;;;22.90;92.70;24.50;97365.00;;;;5036343;28;20267;-84
2023/06/24 12:27:05;;;;;;;0.43;0.23;;;22.60;92.10;25.10;97354.00;;;;5027980;28;20193;-85
2023/06/24 12:29:55;;;;;;;0.70;0.20;;;22.60;93.20;25.60;97363.00;;;;5020421;28;20210;-85
2023/06/24 12:32:44;;;;;;;0.20;0.17;;;22.60;93.40;25.20;97356.00;;;;5018039;28;20203;-86
2023/06/24 12:35:35;;;;;;;0.20;0.20;;;22.70;94.10;24.70;97364.00;;;;5035080;28;20315;-82
2023/06/24 12:38:23;;;;;;;0.30;0.20;;;22.60;92.80;25.60;97371.00;;;;5018152;28;20862;-82